Aérodrome :
LOGIN :

S'inscrire | Disclaimer

   EN    FR    IT 

 










Légende :    VFR   VFR Marginal   IFR   IFR Intensif   IFR Très Intensif
Visi : 
Plafond : 
>= 8 km
>= 3000ft
5 à 8 km
1000 à 3000 ft
1500m à 5 km
500 à 1000 ft
800 à 1500m
200 à 500 ft
< 800m
< 200 ft
Symboles :   Orages  Brouillard  Fortes neiges  Fortes précipitations  Vent > 20 kt
SIGMETs :   Divers  Orages  Givrage  Turbulence  Onde Orograph.  Cendres Volcan.







- Altitude de l'aérodrome : 779 ft
- Code IATA : CMF
- Voir les cartes d'approche


LFLB - Chambery / Aix-Les-Bains

DERNIER METAR :
  • 200930Z AUTO 36006KT 320V030 9999 FEW001 19/12 Q1017 NOSIG

METARs EXPIRÉS :
  • 200900Z AUTO 34006KT 310V020 9999 FEW001 BKN200 18/11 Q1017 NOSIG
  • 200830Z AUTO 34006KT 300V040 9999 FEW001 18/11 Q1017 NOSIG
  • 200800Z AUTO 36006KT 330V040 CAVOK 17/11 Q1017 NOSIG
  • 200730Z AUTO 01007KT CAVOK 17/10 Q1018 NOSIG
  • 200700Z AUTO 36003KT 310V060 CAVOK 16/11 Q1018 NOSIG

TAF TAF LFLB
Valide du 20 à 06h jusqu'au 21 à 06h UTC


200500Z 2006/2106 35006KT CAVOK
TEMPO 2012/2021 SCT045TCU FEW050CB
PROB30
TEMPO 2014/2021 VRB15G25KT 3000 -TSRA SCT045CB
BECMG 2016/2018 15010KT
BECMG 2100/2102 VRB03KT
PROB30
TEMPO 2103/2106 SHRA FEW040TCU BKN060
Pas de NOTAMs connus pour ce terrain.



MET'MAP, la Météo Aéronautique d'un coup d'oeil ! - Copyright ORBIFLY Décembre 2007 - Disclaimer

ORBIFLY MET'MAP TEAM :

Programmation & Développement : Alexandra Zaïnal
Conception & Développement : Baudouin d'Aumeries
Co-Programmation & Développement : Marc-Olivier Méhu
Soutien technique & logistique : Manuel Goepfert

Contact : metmap@orbifly.com




SOURCES & CREDITS :

   NOAA